createdAt,value
2023-04-29T00:00:32.310Z,49.28
2023-04-29T00:01:32.328Z,49.27
2023-04-29T00:02:32.488Z,49.34
2023-04-29T00:03:32.713Z,49.37
2023-04-29T00:04:32.875Z,49.46
2023-04-29T00:05:32.763Z,49.50
2023-04-29T00:06:32.640Z,49.49
2023-04-29T00:07:32.690Z,49.57
2023-04-29T00:08:32.755Z,49.60
2023-04-29T00:09:32.787Z,49.62
2023-04-29T00:10:32.833Z,49.71
2023-04-29T00:11:32.839Z,49.73
2023-04-29T00:12:32.860Z,49.74
2023-04-29T00:13:32.843Z,49.75
2023-04-29T00:14:32.893Z,49.72
2023-04-29T00:15:32.892Z,49.73
2023-04-29T00:16:32.911Z,49.65
2023-04-29T00:17:32.937Z,49.61
2023-04-29T00:18:32.914Z,49.59
2023-04-29T00:19:32.972Z,49.50
2023-04-29T00:20:33.045Z,49.48
2023-04-29T00:21:33.099Z,49.51
2023-04-29T00:22:33.154Z,49.53
2023-04-29T00:23:33.220Z,49.52
2023-04-29T00:24:33.196Z,49.54
2023-04-29T00:25:33.237Z,49.63
2023-04-29T00:26:33.255Z,49.66
2023-04-29T00:27:33.282Z,49.68
2023-04-29T00:28:33.312Z,49.68
2023-04-29T00:29:33.364Z,49.63
2023-04-29T00:30:33.413Z,49.55
2023-04-29T00:31:33.471Z,49.52
2023-04-29T00:32:33.493Z,49.55
2023-04-29T00:33:33.491Z,49.60
2023-04-29T00:34:33.487Z,49.63
2023-04-29T00:35:33.504Z,49.68
2023-04-29T00:36:33.478Z,49.62
2023-04-29T00:37:33.542Z,49.58
2023-04-29T00:38:33.510Z,49.57
2023-04-29T00:39:33.519Z,49.55
2023-04-29T00:40:33.488Z,49.56
2023-04-29T00:41:33.545Z,49.52
2023-04-29T00:42:33.531Z,49.50
2023-04-29T00:43:33.578Z,49.46
2023-04-29T00:44:33.596Z,49.45
2023-04-29T00:45:33.628Z,49.39
2023-04-29T00:46:34.692Z,49.42
2023-04-29T00:47:33.610Z,49.42
2023-04-29T00:48:33.606Z,49.56
2023-04-29T00:49:33.624Z,49.65
2023-04-29T00:50:33.658Z,49.73
2023-04-29T00:51:33.592Z,49.78
2023-04-29T00:52:33.600Z,49.77
2023-04-29T00:53:33.589Z,49.79
2023-04-29T00:54:33.589Z,49.85
2023-04-29T00:55:33.624Z,49.86
2023-04-29T00:56:33.595Z,49.81
2023-04-29T00:57:33.576Z,49.81
2023-04-29T00:58:33.660Z,49.76
2023-04-29T00:59:33.587Z,49.78
2023-04-29T01:00:33.624Z,49.66
2023-04-29T01:01:33.783Z,49.54
2023-04-29T01:02:33.660Z,49.49
2023-04-29T01:03:33.693Z,49.42
2023-04-29T01:04:33.618Z,49.43
2023-04-29T01:05:33.584Z,49.39
2023-04-29T01:06:33.603Z,49.34
2023-04-29T01:07:33.597Z,49.32
2023-04-29T01:08:33.617Z,49.33
2023-04-29T01:09:33.588Z,49.38
2023-04-29T01:10:33.651Z,49.31
2023-04-29T01:11:33.673Z,49.32
2023-04-29T01:12:33.713Z,49.27
2023-04-29T01:13:33.707Z,49.27
2023-04-29T01:14:33.737Z,49.30
2023-04-29T01:15:33.752Z,49.36
2023-04-29T01:16:33.792Z,49.43
2023-04-29T01:17:33.818Z,49.44
2023-04-29T01:18:33.812Z,49.54
2023-04-29T01:19:33.840Z,49.58
2023-04-29T01:20:33.859Z,49.57
2023-04-29T01:21:33.873Z,49.64
2023-04-29T01:22:33.883Z,49.63
2023-04-29T01:23:33.857Z,49.69
2023-04-29T01:24:33.887Z,49.66
2023-04-29T01:25:33.906Z,49.69
2023-04-29T01:26:33.901Z,49.73
2023-04-29T01:27:33.913Z,49.72
2023-04-29T01:28:33.876Z,49.76
2023-04-29T01:29:33.886Z,49.82
2023-04-29T01:30:33.975Z,49.86
2023-04-29T01:31:33.967Z,49.88
2023-04-29T01:32:34.618Z,49.91
2023-04-29T01:33:33.886Z,50.01
2023-04-29T01:34:33.900Z,49.94
2023-04-29T01:35:33.865Z,49.90
2023-04-29T01:36:33.879Z,49.80
2023-04-29T01:37:33.871Z,49.76
2023-04-29T01:38:33.875Z,49.78
2023-04-29T01:39:33.884Z,49.79
2023-04-29T01:40:33.895Z,49.81
2023-04-29T01:41:33.868Z,49.80
2023-04-29T01:42:33.877Z,49.81
2023-04-29T01:43:33.861Z,49.72
2023-04-29T01:44:33.878Z,49.73
2023-04-29T01:45:33.901Z,49.78
2023-04-29T01:46:33.951Z,49.74
2023-04-29T01:47:33.971Z,49.71
2023-04-29T01:48:33.869Z,49.70
2023-04-29T01:49:33.889Z,49.73
2023-04-29T01:50:33.901Z,49.69
2023-04-29T01:51:33.897Z,49.71
2023-04-29T01:52:33.876Z,49.69
2023-04-29T01:53:33.897Z,49.73
2023-04-29T01:54:33.885Z,49.75
2023-04-29T01:55:33.891Z,49.71
2023-04-29T01:56:33.905Z,49.73
2023-04-29T01:57:33.881Z,49.71
2023-04-29T01:58:33.917Z,49.67
2023-04-29T01:59:33.917Z,49.73
2023-04-29T02:00:33.939Z,49.79
2023-04-29T02:01:33.891Z,49.81
2023-04-29T02:02:34.083Z,49.82
2023-04-29T02:03:34.077Z,49.80
2023-04-29T02:04:33.993Z,49.77
2023-04-29T02:05:33.907Z,49.73
2023-04-29T02:06:33.909Z,49.64
2023-04-29T02:07:33.881Z,49.60
2023-04-29T02:08:33.886Z,49.60
2023-04-29T02:09:33.906Z,49.60
2023-04-29T02:10:33.908Z,49.55
2023-04-29T02:11:33.932Z,49.56
2023-04-29T02:12:33.906Z,49.54
2023-04-29T02:13:33.914Z,49.53
2023-04-29T02:14:35.594Z,49.55
2023-04-29T02:15:33.890Z,49.52
2023-04-29T02:16:33.916Z,49.50
2023-04-29T02:17:33.955Z,49.49
2023-04-29T02:18:33.905Z,49.51
2023-04-29T02:19:33.844Z,49.53
2023-04-29T02:20:33.864Z,49.57
2023-04-29T02:21:33.854Z,49.53
2023-04-29T02:22:33.841Z,49.54
2023-04-29T02:23:33.841Z,49.57
2023-04-29T02:24:33.837Z,49.57
2023-04-29T02:25:33.835Z,49.57
2023-04-29T02:26:33.828Z,49.55
2023-04-29T02:27:33.821Z,49.58
2023-04-29T02:28:33.777Z,49.62
2023-04-29T02:29:33.785Z,49.60
2023-04-29T02:30:33.824Z,49.57
2023-04-29T02:31:33.815Z,49.53
2023-04-29T02:32:33.856Z,49.48
2023-04-29T02:33:33.749Z,49.42
2023-04-29T02:34:33.778Z,49.38
2023-04-29T02:35:33.733Z,49.32
2023-04-29T02:36:33.738Z,49.32
2023-04-29T02:37:33.749Z,49.28
2023-04-29T02:38:33.728Z,49.24
2023-04-29T02:39:33.707Z,49.22
2023-04-29T02:40:33.741Z,49.24
2023-04-29T02:41:33.712Z,49.25
2023-04-29T02:42:33.712Z,49.23
2023-04-29T02:43:33.687Z,49.27
2023-04-29T02:44:33.705Z,49.25
2023-04-29T02:45:33.745Z,49.20
2023-04-29T02:46:33.750Z,49.18
2023-04-29T02:47:33.745Z,49.16
2023-04-29T02:48:33.641Z,49.15
2023-04-29T02:49:33.677Z,49.15
2023-04-29T02:50:33.629Z,49.24
2023-04-29T02:51:33.646Z,49.25
2023-04-29T02:52:33.649Z,49.20
2023-04-29T02:53:33.616Z,49.16
2023-04-29T02:54:33.603Z,49.13
2023-04-29T02:55:33.605Z,49.09
2023-04-29T02:56:33.601Z,49.11
2023-04-29T02:57:33.585Z,49.12
2023-04-29T02:58:33.569Z,49.11
2023-04-29T02:59:33.599Z,49.23
2023-04-29T03:00:33.607Z,49.37
2023-04-29T03:01:33.584Z,49.40
2023-04-29T03:02:33.654Z,49.39
2023-04-29T03:03:33.620Z,49.46
2023-04-29T03:04:33.627Z,49.48
2023-04-29T03:05:33.585Z,49.52
2023-04-29T03:06:33.565Z,49.52
2023-04-29T03:07:33.557Z,49.54
2023-04-29T03:08:33.549Z,49.53
2023-04-29T03:09:33.520Z,49.53
2023-04-29T03:10:33.521Z,49.58
2023-04-29T03:11:33.503Z,49.58
2023-04-29T03:12:33.486Z,49.62
2023-04-29T03:13:33.473Z,49.59
2023-04-29T03:14:33.478Z,49.58
2023-04-29T03:15:33.496Z,49.53
2023-04-29T03:16:33.497Z,49.45
2023-04-29T03:17:33.462Z,49.39
2023-04-29T03:18:33.444Z,49.37
2023-04-29T03:19:33.504Z,49.33
2023-04-29T03:20:33.437Z,49.28
2023-04-29T03:21:33.454Z,49.24
2023-04-29T03:22:33.422Z,49.24
2023-04-29T03:23:33.429Z,49.30
2023-04-29T03:24:33.380Z,49.31
2023-04-29T03:25:33.412Z,49.32
2023-04-29T03:26:33.407Z,49.32
2023-04-29T03:27:33.392Z,49.34
2023-04-29T03:28:33.373Z,49.32
2023-04-29T03:29:33.378Z,49.37
2023-04-29T03:30:33.392Z,49.34
2023-04-29T03:31:33.401Z,49.38
2023-04-29T03:32:33.423Z,49.40
2023-04-29T03:33:33.471Z,49.42
2023-04-29T03:34:33.515Z,49.43
2023-04-29T03:35:33.568Z,49.46
2023-04-29T03:36:33.596Z,49.49
2023-04-29T03:37:33.682Z,49.46
2023-04-29T03:38:33.707Z,49.42
2023-04-29T03:39:33.767Z,49.38
2023-04-29T03:40:33.805Z,49.39
2023-04-29T03:41:33.845Z,49.26
2023-04-29T03:42:33.913Z,49.19
2023-04-29T03:43:33.956Z,49.23
2023-04-29T03:44:33.984Z,49.13
2023-04-29T03:45:34.071Z,49.15
2023-04-29T03:46:34.163Z,49.11
2023-04-29T03:47:34.231Z,49.09
2023-04-29T03:48:34.202Z,49.03
2023-04-29T03:49:34.244Z,49.05
2023-04-29T03:50:34.292Z,48.97
2023-04-29T03:51:34.362Z,48.92
2023-04-29T03:52:34.395Z,49.02
2023-04-29T03:53:34.470Z,49.04
2023-04-29T03:54:34.496Z,48.98
2023-04-29T03:55:34.542Z,48.97
2023-04-29T03:56:34.609Z,48.94
2023-04-29T03:57:34.613Z,48.90
2023-04-29T03:58:34.673Z,48.88
2023-04-29T03:59:34.727Z,48.83
2023-04-29T04:00:34.775Z,48.84
2023-04-29T04:01:34.856Z,48.82
2023-04-29T04:02:34.989Z,48.80
2023-04-29T04:03:34.992Z,48.78
2023-04-29T04:04:35.046Z,48.77
2023-04-29T04:05:35.012Z,48.89
2023-04-29T04:06:35.121Z,48.93
2023-04-29T04:07:35.078Z,48.91
2023-04-29T04:08:35.151Z,48.91
2023-04-29T04:09:35.193Z,48.97
2023-04-29T04:10:35.258Z,48.98
2023-04-29T04:11:35.306Z,49.02
2023-04-29T04:12:35.374Z,49.01
2023-04-29T04:13:35.406Z,48.95
2023-04-29T04:14:35.467Z,48.96
2023-04-29T04:15:35.506Z,48.99
2023-04-29T04:16:35.555Z,48.96
2023-04-29T04:17:35.652Z,48.95
2023-04-29T04:18:35.642Z,48.92
2023-04-29T04:19:35.730Z,48.91
2023-04-29T04:20:35.756Z,48.91
2023-04-29T04:21:35.803Z,48.90
2023-04-29T04:22:35.848Z,48.88
2023-04-29T04:23:35.883Z,48.86
2023-04-29T04:24:35.934Z,48.80
2023-04-29T04:25:35.984Z,48.77
2023-04-29T04:26:36.037Z,48.75
2023-04-29T04:27:36.077Z,48.74
2023-04-29T04:28:36.157Z,48.81
2023-04-29T04:29:36.195Z,48.85
2023-04-29T04:30:36.235Z,48.87
2023-04-29T04:31:36.323Z,48.86
2023-04-29T04:32:36.366Z,48.91
2023-04-29T04:33:36.376Z,48.90
2023-04-29T04:34:37.168Z,48.87
2023-04-29T04:35:36.474Z,48.80
2023-04-29T04:36:36.547Z,48.77
2023-04-29T04:37:36.602Z,48.72
2023-04-29T04:38:36.657Z,48.68
2023-04-29T04:39:36.684Z,48.65
2023-04-29T04:40:36.742Z,48.66
2023-04-29T04:41:36.794Z,48.67
2023-04-29T04:42:36.830Z,48.70
2023-04-29T04:43:36.873Z,48.72
2023-04-29T04:44:36.940Z,48.77
2023-04-29T04:45:37.010Z,48.74
2023-04-29T04:46:37.045Z,48.71
2023-04-29T04:47:37.130Z,48.71
2023-04-29T04:48:37.161Z,48.66
2023-04-29T04:49:37.180Z,48.65
2023-04-29T04:50:37.226Z,48.74
2023-04-29T04:51:37.272Z,48.78
2023-04-29T04:52:37.344Z,48.83
2023-04-29T04:53:37.389Z,48.93
2023-04-29T04:54:37.464Z,48.96
2023-04-29T04:55:37.506Z,48.97
2023-04-29T04:56:37.540Z,48.95
2023-04-29T04:57:37.572Z,48.99
2023-04-29T04:58:37.623Z,49.03
2023-04-29T04:59:37.709Z,49.00
2023-04-29T05:00:37.757Z,49.06
2023-04-29T05:01:37.886Z,49.03
2023-04-29T05:02:38.199Z,49.03
2023-04-29T05:03:38.166Z,49.09
2023-04-29T05:04:37.982Z,49.08
2023-04-29T05:05:38.026Z,49.06
2023-04-29T05:06:38.111Z,48.99
2023-04-29T05:07:38.180Z,48.88
2023-04-29T05:08:38.185Z,48.85
2023-04-29T05:09:38.243Z,48.84
2023-04-29T05:10:38.294Z,48.79
2023-04-29T05:11:38.344Z,48.79
2023-04-29T05:12:38.402Z,48.75
2023-04-29T05:13:38.467Z,48.70
2023-04-29T05:14:38.570Z,48.70
2023-04-29T05:15:38.548Z,48.70
2023-04-29T05:16:38.576Z,48.68
2023-04-29T05:17:38.552Z,48.69
2023-04-29T05:18:38.538Z,48.71
2023-04-29T05:19:38.563Z,48.72
2023-04-29T05:20:38.571Z,48.72
2023-04-29T05:21:38.592Z,48.63
2023-04-29T05:22:38.632Z,48.62
2023-04-29T05:23:38.611Z,48.59
2023-04-29T05:24:38.645Z,48.59
2023-04-29T05:25:38.649Z,48.62
2023-04-29T05:26:38.639Z,48.64
2023-04-29T05:27:38.666Z,48.66
2023-04-29T05:28:38.706Z,48.71
2023-04-29T05:29:38.684Z,48.69
2023-04-29T05:30:38.787Z,48.68
2023-04-29T05:31:38.668Z,48.71
2023-04-29T05:32:38.725Z,48.74
2023-04-29T05:33:38.715Z,48.77
2023-04-29T05:34:38.744Z,48.82
2023-04-29T05:35:38.767Z,48.89
2023-04-29T05:36:38.752Z,48.95
2023-04-29T05:37:38.762Z,48.97
2023-04-29T05:38:38.783Z,49.02
2023-04-29T05:39:38.836Z,49.03
2023-04-29T05:40:38.837Z,49.13
2023-04-29T05:41:38.871Z,49.17
2023-04-29T05:42:38.869Z,49.28
2023-04-29T05:43:38.910Z,49.28
2023-04-29T05:44:38.873Z,49.27
2023-04-29T05:45:38.901Z,49.21
2023-04-29T05:46:38.997Z,49.20
2023-04-29T05:47:39.005Z,49.25
2023-04-29T05:48:38.938Z,49.27
2023-04-29T05:49:38.948Z,49.26
2023-04-29T05:50:39.029Z,49.29
2023-04-29T05:51:38.990Z,49.35
2023-04-29T05:52:39.020Z,49.38
2023-04-29T05:53:39.002Z,49.44
2023-04-29T05:54:39.043Z,49.45
2023-04-29T05:55:39.060Z,49.54
2023-04-29T05:56:39.081Z,49.50
2023-04-29T05:57:39.117Z,49.48
2023-04-29T05:58:39.144Z,49.55
2023-04-29T05:59:39.116Z,49.58
2023-04-29T06:00:39.187Z,49.75
2023-04-29T06:01:39.202Z,49.72
2023-04-29T06:02:44.344Z,49.75
2023-04-29T06:03:40.307Z,49.75
2023-04-29T06:04:39.348Z,49.74
2023-04-29T06:05:39.501Z,49.72
2023-04-29T06:06:39.187Z,49.67
2023-04-29T06:07:39.158Z,49.62
2023-04-29T06:08:39.181Z,49.64
2023-04-29T06:09:39.168Z,49.66
2023-04-29T06:10:39.152Z,49.64
2023-04-29T06:11:39.146Z,49.71
2023-04-29T06:12:39.131Z,49.70
2023-04-29T06:13:39.135Z,49.69
2023-04-29T06:14:39.144Z,49.76
2023-04-29T06:15:39.108Z,49.72
2023-04-29T06:16:39.125Z,49.74
2023-04-29T06:17:39.106Z,49.81
2023-04-29T06:18:39.082Z,49.80
2023-04-29T06:19:39.112Z,49.82
2023-04-29T06:20:39.130Z,49.75
2023-04-29T06:21:39.086Z,49.66
2023-04-29T06:22:39.076Z,49.70
2023-04-29T06:23:39.060Z,49.63
2023-04-29T06:24:39.062Z,49.59
2023-04-29T06:25:39.054Z,49.58
2023-04-29T06:26:39.088Z,49.64
2023-04-29T06:27:39.003Z,49.64
2023-04-29T06:28:39.047Z,49.60
2023-04-29T06:29:39.026Z,49.51
2023-04-29T06:30:39.056Z,49.41
2023-04-29T06:31:39.753Z,49.33
2023-04-29T06:32:39.138Z,49.27
2023-04-29T06:33:39.069Z,49.27
2023-04-29T06:34:39.084Z,49.34
2023-04-29T06:35:39.079Z,49.38
2023-04-29T06:36:39.091Z,49.34
2023-04-29T06:37:39.149Z,49.28
2023-04-29T06:38:39.123Z,49.29
2023-04-29T06:39:39.133Z,49.27
2023-04-29T06:40:39.155Z,49.29
2023-04-29T06:41:39.159Z,49.30
2023-04-29T06:42:39.179Z,49.30
2023-04-29T06:43:39.171Z,49.28
2023-04-29T06:44:39.177Z,49.25
2023-04-29T06:45:39.240Z,49.20
2023-04-29T06:46:39.262Z,49.03
2023-04-29T06:47:39.231Z,48.88
2023-04-29T06:48:39.235Z,48.74
2023-04-29T06:49:39.227Z,48.70
2023-04-29T06:50:39.218Z,48.70
2023-04-29T06:51:39.206Z,48.66
2023-04-29T06:52:39.181Z,48.65
2023-04-29T06:53:39.198Z,48.68
2023-04-29T06:54:39.184Z,48.69
2023-04-29T06:55:39.196Z,48.67
2023-04-29T06:56:39.197Z,48.64
2023-04-29T06:57:39.192Z,48.61
2023-04-29T06:58:39.206Z,48.60
2023-04-29T06:59:39.198Z,48.57
2023-04-29T07:00:39.187Z,48.57
2023-04-29T07:01:40.762Z,48.67
2023-04-29T07:02:39.364Z,48.72
2023-04-29T07:03:39.281Z,48.71
2023-04-29T07:04:39.162Z,48.70
2023-04-29T07:05:39.149Z,48.62
2023-04-29T07:06:39.192Z,48.63
2023-04-29T07:07:39.110Z,48.56
2023-04-29T07:08:39.154Z,48.50
2023-04-29T07:09:39.107Z,48.47
2023-04-29T07:10:39.144Z,48.40
2023-04-29T07:11:39.122Z,48.41
2023-04-29T07:12:39.117Z,48.40
2023-04-29T07:13:39.137Z,48.42
2023-04-29T07:14:39.089Z,48.46
2023-04-29T07:15:39.081Z,48.42
2023-04-29T07:16:39.090Z,48.39
2023-04-29T07:17:39.113Z,48.40
2023-04-29T07:18:39.089Z,48.33
2023-04-29T07:19:39.052Z,48.32
2023-04-29T07:20:39.106Z,48.28
2023-04-29T07:21:39.119Z,48.21
2023-04-29T07:22:39.027Z,48.15
2023-04-29T07:23:39.013Z,48.17
2023-04-29T07:24:38.996Z,48.19
2023-04-29T07:25:39.056Z,48.22
2023-04-29T07:26:38.990Z,48.21
2023-04-29T07:27:39.033Z,48.19
2023-04-29T07:28:39.016Z,48.17
2023-04-29T07:29:39.010Z,48.16
2023-04-29T07:30:39.023Z,48.16
2023-04-29T07:31:38.951Z,48.14
2023-04-29T07:32:39.005Z,48.14
2023-04-29T07:33:38.968Z,48.11
2023-04-29T07:34:38.985Z,48.05
2023-04-29T07:35:38.947Z,48.09
2023-04-29T07:36:38.911Z,48.06
2023-04-29T07:37:38.947Z,48.02
2023-04-29T07:38:38.940Z,48.01
2023-04-29T07:39:38.928Z,47.99
2023-04-29T07:40:38.956Z,48.17
2023-04-29T07:41:38.907Z,48.22
2023-04-29T07:42:38.911Z,48.08
2023-04-29T07:43:40.965Z,47.97
2023-04-29T07:44:38.879Z,47.98
2023-04-29T07:45:38.860Z,47.89
2023-04-29T07:46:38.880Z,47.80
2023-04-29T07:47:38.895Z,47.74
2023-04-29T07:48:38.816Z,47.66
2023-04-29T07:49:39.005Z,47.59
2023-04-29T07:50:38.843Z,47.62
2023-04-29T07:51:38.830Z,47.56
2023-04-29T07:52:38.793Z,47.45
2023-04-29T07:53:38.798Z,47.36
2023-04-29T07:54:38.803Z,47.29
2023-04-29T07:55:38.819Z,47.16
2023-04-29T07:56:38.782Z,47.08
2023-04-29T07:57:38.811Z,46.99
2023-04-29T07:58:38.754Z,46.92
2023-04-29T07:59:38.774Z,46.91
2023-04-29T08:00:38.788Z,46.84
2023-04-29T08:01:38.756Z,46.84
2023-04-29T08:02:38.857Z,46.85
2023-04-29T08:03:41.185Z,46.77
2023-04-29T08:04:38.905Z,46.74
2023-04-29T08:05:38.780Z,46.72
2023-04-29T08:06:38.722Z,46.63
2023-04-29T08:07:38.697Z,46.51
2023-04-29T08:08:38.710Z,46.46
2023-04-29T08:09:38.691Z,46.41
2023-04-29T08:10:38.689Z,46.31
2023-04-29T08:11:38.683Z,46.19
2023-04-29T08:12:38.649Z,46.20
2023-04-29T08:13:38.667Z,46.25
2023-04-29T08:14:38.628Z,46.28
2023-04-29T08:15:38.675Z,46.26
2023-04-29T08:16:38.686Z,46.16
2023-04-29T08:17:38.671Z,46.11
2023-04-29T08:18:38.613Z,46.09
2023-04-29T08:19:38.613Z,46.18
2023-04-29T08:20:38.621Z,46.18
2023-04-29T08:21:38.609Z,46.22
2023-04-29T08:22:38.590Z,46.27
2023-04-29T08:23:38.601Z,46.24
2023-04-29T08:24:38.571Z,46.28
2023-04-29T08:25:38.583Z,46.28
2023-04-29T08:26:38.571Z,46.31
2023-04-29T08:27:38.565Z,46.36
2023-04-29T08:28:38.548Z,46.39
2023-04-29T08:29:38.554Z,46.38
2023-04-29T08:30:38.560Z,46.48
2023-04-29T08:31:38.579Z,46.52
2023-04-29T08:32:38.566Z,46.50
2023-04-29T08:33:38.534Z,46.45
2023-04-29T08:34:38.511Z,46.47
2023-04-29T08:35:38.496Z,46.44
2023-04-29T08:36:38.557Z,46.40
2023-04-29T08:37:38.482Z,46.35
2023-04-29T08:38:38.512Z,46.31
2023-04-29T08:39:38.484Z,46.31
2023-04-29T08:40:38.540Z,46.33
2023-04-29T08:41:38.517Z,46.31
2023-04-29T08:42:38.559Z,46.28
2023-04-29T08:43:38.590Z,46.26
2023-04-29T08:44:38.657Z,46.18
2023-04-29T08:45:38.708Z,46.19
2023-04-29T08:46:38.712Z,46.24
2023-04-29T08:47:38.819Z,46.29
2023-04-29T08:48:38.850Z,46.27
2023-04-29T08:49:38.807Z,46.28
2023-04-29T08:50:38.825Z,46.22
2023-04-29T08:51:38.857Z,46.20
2023-04-29T08:52:38.882Z,46.12
2023-04-29T08:53:38.928Z,46.10
2023-04-29T08:54:38.952Z,45.99
2023-04-29T08:55:39.004Z,45.90
2023-04-29T08:56:39.019Z,45.80
2023-04-29T08:57:39.056Z,45.74
2023-04-29T08:58:39.084Z,45.63
2023-04-29T08:59:39.088Z,45.55
2023-04-29T09:00:39.147Z,45.47
2023-04-29T09:01:39.262Z,45.44
2023-04-29T09:02:39.270Z,45.36
2023-04-29T09:03:39.320Z,45.36
2023-04-29T09:04:39.296Z,45.32
2023-04-29T09:05:39.231Z,45.27
2023-04-29T09:06:39.218Z,45.19
2023-04-29T09:07:39.241Z,45.10
2023-04-29T09:08:39.261Z,45.07
2023-04-29T09:09:39.294Z,45.01
2023-04-29T09:10:39.312Z,44.98
2023-04-29T09:11:39.312Z,44.91
2023-04-29T09:12:39.326Z,44.83
2023-04-29T09:13:39.326Z,44.78
2023-04-29T09:14:39.334Z,44.76
2023-04-29T09:15:39.377Z,44.76
2023-04-29T09:16:39.416Z,44.67
2023-04-29T09:17:39.472Z,44.66
2023-04-29T09:18:39.389Z,44.61
2023-04-29T09:19:39.421Z,44.54
2023-04-29T09:20:39.426Z,44.54
2023-04-29T09:21:39.416Z,44.49
2023-04-29T09:22:39.454Z,44.39
2023-04-29T09:23:39.433Z,44.15
2023-04-29T09:24:39.440Z,43.95
2023-04-29T09:25:39.489Z,43.85
2023-04-29T09:26:39.453Z,43.81
2023-04-29T09:27:39.467Z,43.75
2023-04-29T09:28:39.464Z,43.72
2023-04-29T09:29:39.464Z,43.68
2023-04-29T09:30:39.433Z,43.62
2023-04-29T09:31:39.573Z,43.60
2023-04-29T09:32:39.545Z,43.65
2023-04-29T09:33:39.466Z,43.66
2023-04-29T09:34:39.493Z,43.71
2023-04-29T09:35:39.442Z,43.74
2023-04-29T09:36:39.485Z,43.69
2023-04-29T09:37:39.462Z,43.65
2023-04-29T09:38:39.434Z,43.69
2023-04-29T09:39:39.427Z,43.70
2023-04-29T09:40:54.490Z,43.68
2023-04-29T09:41:40.434Z,43.64
2023-04-29T09:42:39.420Z,43.56
2023-04-29T09:43:39.406Z,43.48
2023-04-29T09:44:39.413Z,43.40
2023-04-29T09:45:39.405Z,43.35
2023-04-29T09:46:39.424Z,43.29
2023-04-29T09:47:39.402Z,43.27
2023-04-29T09:48:39.398Z,43.25
2023-04-29T09:49:39.375Z,43.21
2023-04-29T09:50:39.378Z,43.17
2023-04-29T09:51:39.338Z,43.13
2023-04-29T09:52:39.387Z,43.12
2023-04-29T09:53:39.343Z,43.09
2023-04-29T09:54:39.326Z,43.06
2023-04-29T09:55:39.308Z,43.05
2023-04-29T09:56:39.327Z,43.01
2023-04-29T09:57:39.383Z,42.98
2023-04-29T09:58:39.432Z,42.96
2023-04-29T09:59:39.490Z,42.95
2023-04-29T10:00:39.486Z,42.99
2023-04-29T10:01:39.623Z,42.97
2023-04-29T10:02:39.697Z,43.00
2023-04-29T10:03:39.876Z,42.97
2023-04-29T10:04:40.317Z,42.94
2023-04-29T10:05:39.774Z,42.96
2023-04-29T10:06:39.819Z,42.95
2023-04-29T10:07:39.896Z,42.90
2023-04-29T10:08:39.919Z,42.91
2023-04-29T10:09:40.007Z,42.90
2023-04-29T10:10:40.101Z,42.89
2023-04-29T10:11:40.119Z,42.93
2023-04-29T10:12:40.193Z,42.93
2023-04-29T10:13:40.239Z,42.95
2023-04-29T10:14:40.333Z,42.91
2023-04-29T10:15:40.372Z,42.93
2023-04-29T10:16:40.441Z,42.91
2023-04-29T10:17:40.501Z,42.90
2023-04-29T10:18:40.562Z,42.84
2023-04-29T10:19:40.611Z,42.88
2023-04-29T10:20:40.705Z,42.88
2023-04-29T10:21:40.733Z,42.84
2023-04-29T10:22:40.787Z,42.84
2023-04-29T10:23:40.910Z,42.79
2023-04-29T10:24:40.899Z,42.74
2023-04-29T10:25:40.961Z,42.70
2023-04-29T10:26:41.014Z,42.74
2023-04-29T10:27:41.093Z,42.76
2023-04-29T10:28:41.153Z,42.75
2023-04-29T10:29:41.222Z,42.73
2023-04-29T10:30:41.299Z,42.73
2023-04-29T10:31:41.355Z,42.69
2023-04-29T10:32:50.473Z,42.62
2023-04-29T10:33:42.416Z,42.66
2023-04-29T10:34:41.399Z,42.60
2023-04-29T10:35:41.396Z,42.62
2023-04-29T10:36:41.386Z,42.61
2023-04-29T10:37:41.368Z,42.61
2023-04-29T10:38:41.357Z,42.64
2023-04-29T10:39:41.336Z,42.71
2023-04-29T10:40:41.355Z,42.77
2023-04-29T10:41:41.309Z,42.77
2023-04-29T10:42:41.401Z,42.70
2023-04-29T10:43:41.452Z,42.68
2023-04-29T10:44:41.518Z,42.64
2023-04-29T10:45:41.570Z,42.66
2023-04-29T10:46:41.670Z,42.62
2023-04-29T10:47:41.707Z,42.65
2023-04-29T10:48:41.743Z,42.56
2023-04-29T10:49:41.771Z,42.40
2023-04-29T10:50:41.853Z,42.33
2023-04-29T10:51:41.940Z,42.25
2023-04-29T10:52:41.951Z,42.18
2023-04-29T10:53:42.014Z,42.13
2023-04-29T10:54:42.821Z,42.13
2023-04-29T10:55:42.124Z,42.08
2023-04-29T10:56:42.203Z,42.03
2023-04-29T10:57:42.236Z,42.02
2023-04-29T10:58:42.282Z,41.99
2023-04-29T10:59:42.360Z,41.98
2023-04-29T11:00:42.424Z,41.91
2023-04-29T11:01:42.483Z,41.97
2023-04-29T11:02:42.656Z,41.96
2023-04-29T11:03:42.799Z,41.94
2023-04-29T11:04:42.677Z,41.94
2023-04-29T11:05:42.644Z,41.95
2023-04-29T11:06:42.723Z,41.92
2023-04-29T11:07:42.741Z,41.94
2023-04-29T11:08:42.771Z,41.87
2023-04-29T11:09:42.868Z,41.89
2023-04-29T11:10:42.869Z,41.87
2023-04-29T11:11:42.938Z,41.84
2023-04-29T11:12:42.982Z,41.84
2023-04-29T11:13:43.035Z,41.72
2023-04-29T11:14:43.819Z,41.69
2023-04-29T11:15:43.129Z,41.66
2023-04-29T11:16:43.242Z,41.68
2023-04-29T11:17:43.230Z,41.69
2023-04-29T11:18:43.206Z,41.71
2023-04-29T11:19:43.265Z,41.64
2023-04-29T11:20:43.321Z,41.55
2023-04-29T11:21:43.335Z,41.53
2023-04-29T11:22:43.379Z,41.51
2023-04-29T11:23:43.420Z,41.46
2023-04-29T11:24:43.415Z,41.40
2023-04-29T11:25:43.475Z,41.45
2023-04-29T11:26:43.569Z,41.46
2023-04-29T11:27:43.527Z,41.45
2023-04-29T11:28:43.541Z,41.45
2023-04-29T11:29:43.575Z,41.45
2023-04-29T11:30:43.658Z,41.44
2023-04-29T11:31:43.781Z,41.46
2023-04-29T11:32:43.859Z,41.38
2023-04-29T11:33:43.733Z,41.34
2023-04-29T11:34:43.808Z,41.27
2023-04-29T11:35:43.807Z,41.24
2023-04-29T11:36:44.873Z,40.71
2023-04-29T11:37:43.917Z,40.22
2023-04-29T11:38:43.938Z,39.58
2023-04-29T11:39:43.977Z,39.36
2023-04-29T11:40:43.976Z,38.93
2023-04-29T11:41:44.041Z,38.85
2023-04-29T11:42:44.077Z,38.34
2023-04-29T11:43:44.087Z,38.55
2023-04-29T11:44:44.121Z,38.63
2023-04-29T11:45:44.239Z,38.64
2023-04-29T11:46:44.183Z,38.78
2023-04-29T11:47:44.288Z,38.77
2023-04-29T11:48:44.303Z,38.79
2023-04-29T11:49:44.335Z,38.82
2023-04-29T11:50:44.383Z,38.58
2023-04-29T11:51:44.429Z,38.53
2023-04-29T11:52:44.485Z,38.51
2023-04-29T11:53:44.505Z,38.52
2023-04-29T11:54:44.561Z,38.58
2023-04-29T11:55:44.617Z,38.70
2023-04-29T11:56:44.678Z,38.75
2023-04-29T11:57:44.757Z,38.78
2023-04-29T11:58:44.795Z,38.77
2023-04-29T11:59:44.848Z,38.75
2023-04-29T12:00:44.884Z,38.74
2023-04-29T12:01:44.905Z,38.78
2023-04-29T12:02:45.181Z,38.78
2023-04-29T12:03:45.242Z,38.77
2023-04-29T12:04:45.178Z,38.77
2023-04-29T12:05:45.105Z,38.77
2023-04-29T12:06:45.109Z,38.72
2023-04-29T12:07:45.163Z,38.69
2023-04-29T12:08:45.166Z,38.72
2023-04-29T12:09:45.261Z,38.71
2023-04-29T12:10:45.248Z,38.67
2023-04-29T12:11:45.293Z,38.68
2023-04-29T12:12:45.295Z,38.65
2023-04-29T12:13:45.333Z,38.63
2023-04-29T12:14:45.356Z,38.66
2023-04-29T12:15:45.417Z,38.66
2023-04-29T12:16:45.402Z,38.65
2023-04-29T12:17:45.455Z,38.63
2023-04-29T12:18:46.311Z,38.64
2023-04-29T12:19:45.440Z,38.58
2023-04-29T12:20:45.480Z,38.59
2023-04-29T12:21:45.509Z,38.57
2023-04-29T12:22:45.526Z,38.57
2023-04-29T12:23:45.539Z,38.56
2023-04-29T12:24:45.545Z,38.51
2023-04-29T12:25:45.555Z,38.51
2023-04-29T12:26:45.557Z,38.46
2023-04-29T12:27:45.600Z,38.54
2023-04-29T12:28:45.597Z,38.52
2023-04-29T12:29:45.620Z,38.50
2023-04-29T12:30:45.630Z,38.52
2023-04-29T12:31:45.738Z,38.53
2023-04-29T12:32:45.738Z,38.45
2023-04-29T12:33:45.672Z,38.46
2023-04-29T12:34:45.676Z,38.45
2023-04-29T12:35:45.724Z,38.43
2023-04-29T12:36:45.732Z,38.43
2023-04-29T12:37:45.719Z,38.44
2023-04-29T12:38:45.704Z,38.34
2023-04-29T12:39:45.726Z,38.23
2023-04-29T12:40:45.759Z,38.20
2023-04-29T12:41:45.753Z,38.25
2023-04-29T12:42:45.768Z,38.37
2023-04-29T12:43:45.771Z,38.37
2023-04-29T12:44:45.788Z,38.14
2023-04-29T12:45:45.786Z,38.04
2023-04-29T12:46:45.867Z,37.83
2023-04-29T12:47:45.822Z,37.63
2023-04-29T12:48:45.811Z,37.59
2023-04-29T12:49:45.821Z,37.56
2023-04-29T12:50:45.832Z,37.43
2023-04-29T12:51:45.815Z,37.30
2023-04-29T12:52:45.827Z,37.37